Latest Weather Observations for Bundaberg

IDQ60801

Issued at 1:32 pm EST Wednesday 22 February 2017 (issued every 30 minutes, with the page automatically refreshed every 10 minutes)

About weather observations | Map of weather stations | Latest weather observations for QLD | Other Formats
Station Details ID: 039128 Name: BUNDABERG AERO Lat: -24.91 Lon: 152.32 Height: 30.82 m
Data from the previous 72 hours. | See also: Recent months at Bundaberg
Date/Time
EST
Temp
°C
App
Temp
°C
Dew
Point
°C
Rel
Hum
%
Delta-T
°C
Wind Press
QNH
hPa
Press
MSL
hPa
Rain since
9am
mm
Dir  Spd
km/h
Gust
km/h
Spd
kts
Gust
kts
22/01:00pm 31.2 26.6 16.0 40 9.5 ESE 35 52 19 28 1015.5 1015.3 0.0
22/12:30pm 31.1 26.3 16.7 42 9.1 ESE 37 46 20 25 1016.0 1015.8 0.0
22/12:00pm 31.0 26.4 16.2 41 9.2 ESE 35 46 19 25 1016.2 1016.0 0.0
22/11:30am 31.5 27.3 16.3 40 9.5 ESE 33 48 18 26 1016.6 1016.4 0.0
22/11:00am 31.5 27.7 16.6 40 9.4 ESE 32 44 17 24 1017.0 1016.8 0.0
22/10:33am 30.9 27.0 16.9 43 8.8 ESE 33 54 18 29 1017.3 1017.1 0.0
22/10:30am 30.7 26.9 16.7 43 8.8 ESE 32 44 17 24 1017.3 1017.1 0.0
22/10:00am 30.3 27.0 17.0 44 8.4 ESE 30 48 16 26 1017.3 1017.1 0.0
22/09:56am 30.1 26.9 17.2 46 8.2 ESE 30 48 16 26 1017.2 1017.0 0.0
22/09:30am 30.0 26.9 17.5 47 7.9 ESE 30 43 16 23 1017.6 1017.4 0.0
22/09:00am 29.5 26.5 17.7 49 7.5 SE 30 43 16 23 1017.9 1017.7 0.0
22/08:30am 27.9 25.7 18.6 57 6.0 SE 28 37 15 20 1017.8 1017.6 0.0
22/08:00am 26.8 24.6 18.6 60 5.2 SE 28 33 15 18 1017.7 1017.5 0.0
22/07:30am 26.1 25.8 19.2 65 4.4 SSE 19 28 10 15 1017.3 1017.1 0.0
22/07:00am 23.7 24.3 18.6 73 3.2 S 13 19 7 10 1017.3 1017.1 0.0
22/06:30am 23.2 23.8 18.7 76 2.8 SSE 13 19 7 10 1016.9 1016.7 0.0
22/06:00am 23.1 23.7 18.6 76 2.8 S 13 17 7 9 1016.8 1016.6 0.0
22/05:30am 23.3 24.4 18.8 76 2.9 S 11 17 6 9 1016.5 1016.3 0.0
22/05:00am 23.6 24.4 19.1 76 2.9 SSE 13 19 7 10 1016.1 1015.9 0.0
22/04:30am 23.4 23.9 19.3 78 2.6 S 15 26 8 14 1015.8 1015.6 0.0
22/04:00am 23.6 24.2 19.5 78 2.6 SSE 15 20 8 11 1015.6 1015.4 0.0
22/03:30am 23.6 24.4 19.9 80 2.4 SSE 15 22 8 12 1015.4 1015.2 0.0
22/03:00am 23.6 24.5 20.1 81 2.3 S 15 22 8 12 1015.5 1015.3 0.0
22/02:30am 23.8 25.2 20.3 81 2.3 S 13 19 7 10 1015.6 1015.4 0.0
22/02:00am 23.7 25.1 20.4 82 2.1 SSE 13 19 7 10 1015.5 1015.3 0.0
22/01:30am 23.7 25.1 20.4 82 2.1 SSE 13 17 7 9 1015.8 1015.6 0.0
22/01:00am 23.7 25.0 20.2 81 2.3 S 13 19 7 10 1015.9 1015.7 0.0
22/12:30am 24.4 25.9 20.5 79 2.5 SSE 13 19 7 10 1016.0 1015.8 0.0
22/12:00am 24.1 25.8 20.2 79 2.5 S 11 15 6 8 1016.2 1016.0 0.0
 
Date/Time
EST
Temp
°C
App
Temp
°C
Dew
Point
°C
Rel
Hum
%
Delta-T
°C
Wind Press
QNH
hPa
Press
MSL
hPa
Rain since
9am
mm
Dir  Spd
km/h
Gust
km/h
Spd
kts
Gust
kts
21/11:30pm 24.4 25.8 20.3 78 2.7 SSE 13 15 7 8 1016.3 1016.1 0.0
21/11:00pm 24.8 25.9 20.5 77 2.8 SSE 15 19 8 10 1016.4 1016.2 0.0
21/10:30pm 25.2 26.1 20.9 77 2.8 SE 17 22 9 12 1016.5 1016.3 0.0
21/10:00pm 25.1 26.6 20.6 76 2.9 SSE 13 17 7 9 1016.5 1016.3 0.0
21/09:30pm 25.2 25.9 20.5 75 3.1 SE 17 20 9 11 1016.5 1016.3 0.0
21/09:00pm 25.7 26.1 20.7 74 3.3 SE 19 24 10 13 1016.4 1016.2 0.0
21/08:30pm 25.8 26.2 20.6 73 3.4 SE 19 24 10 13 1016.2 1016.0 0.0
21/08:00pm 26.3 25.7 20.6 71 3.7 SE 24 33 13 18 1015.9 1015.7 0.0
21/07:30pm 26.3 25.7 20.4 70 3.9 ESE 24 30 13 16 1015.7 1015.5 0.0
21/07:00pm 26.7 26.1 20.5 69 4.1 ESE 24 33 13 18 1015.5 1015.3 0.0
21/06:30pm 27.1 25.8 20.7 68 4.2 ESE 28 37 15 20 1015.2 1015.0 0.0
21/06:00pm 27.7 25.7 20.0 63 5.0 ESE 30 39 16 21 1014.7 1014.5 0.0
21/05:30pm 28.7 26.5 20.4 60 5.5 E 32 41 17 22 1014.4 1014.2 0.0
21/05:00pm 29.1 26.6 19.7 57 6.1 ESE 32 43 17 23 1014.2 1014.0 0.0
21/04:30pm 29.8 27.5 20.1 56 6.4 E 32 41 17 22 1013.8 1013.6 0.0
21/04:00pm 30.4 28.7 20.6 55 6.5 E 30 37 16 20 1013.6 1013.4 0.0
21/03:30pm 30.3 28.2 20.5 55 6.5 E 32 43 17 23 1013.4 1013.2 0.0
21/03:00pm 30.9 29.5 20.5 54 6.9 E 28 37 15 20 1013.6 1013.4 0.0
21/02:30pm 31.4 29.5 21.0 54 7.0 E 32 39 17 21 1013.4 1013.2 0.0
21/02:00pm 33.2 32.1 21.0 48 8.2 E 28 37 15 20 1013.6 1013.4 0.0
21/01:30pm 33.3 30.7 18.6 41 9.6 E 30 39 16 21 1013.8 1013.6 0.0
21/01:00pm 32.2 29.7 18.0 42 9.1 E 28 37 15 20 1014.0 1013.8 0.0
21/12:30pm 32.3 29.8 18.1 42 9.2 E 28 39 15 21 1014.3 1014.1 0.0
21/12:00pm 32.6 31.3 19.8 46 8.5 E 26 33 14 18 1014.8 1014.6 0.0
21/11:30am 30.9 30.3 20.5 54 6.9 E 24 35 13 19 1015.2 1015.0 0.0
21/11:00am 31.2 30.1 19.5 49 7.7 ESE 24 35 13 19 1015.4 1015.2 0.0
21/10:30am 29.5 29.3 21.2 61 5.5 E 24 32 13 17 1015.5 1015.3 0.0
21/10:00am 29.8 29.2 20.4 57 6.2 E 24 32 13 17 1015.6 1015.4 0.0
21/09:30am 29.7 30.0 20.3 57 6.2 SE 19 26 10 14 1015.7 1015.5 0.0
21/09:00am 28.6 28.4 20.6 62 5.3 SE 22 30 12 16 1015.6 1015.4 0.0
21/08:30am 28.7 29.9 21.5 65 4.8 SSE 17 26 9 14 1015.7 1015.5 0.0
21/08:00am 27.1 27.8 21.2 70 3.9 SSE 19 26 10 14 1015.5 1015.3 0.0
21/07:30am 26.4 28.0 20.7 71 3.8 SSE 13 22 7 12 1015.2 1015.0 0.0
21/07:00am 24.5 26.0 20.6 79 2.5 SSE 13 20 7 11 1014.9 1014.7 0.0
21/06:30am 23.2 25.3 20.9 87 1.5 S 11 19 6 10 1014.5 1014.3 0.0
21/06:00am 22.5 24.5 20.8 90 1.1 S 11 15 6 8 1014.2 1014.0 0.0
21/05:30am 22.4 24.6 20.5 89 1.2 S 9 13 5 7 1013.8 1013.6 0.0
21/05:00am 22.6 24.6 20.7 89 1.2 S 11 15 6 8 1013.6 1013.4 0.0
21/04:30am 22.7 25.0 20.6 88 1.4 SSW 9 13 5 7 1013.0 1012.8 0.0
21/04:00am 22.6 24.8 20.5 88 1.4 SSW 9 13 5 7 1012.8 1012.6 0.0
21/03:30am 22.8 25.0 20.5 87 1.5 S 9 15 5 8 1012.6 1012.4 0.0
21/03:00am 22.7 24.6 20.6 88 1.4 S 11 13 6 7 1012.4 1012.2 0.0
21/02:30am 22.8 25.0 20.5 87 1.5 S 9 13 5 7 1012.3 1012.1 0.0
21/02:00am 22.8 25.4 20.5 87 1.5 S 7 11 4 6 1012.4 1012.2 0.0
21/01:30am 23.2 25.3 20.9 87 1.5 SSE 11 15 6 8 1012.7 1012.5 0.0
21/01:00am 23.4 25.5 20.9 86 1.6 SSE 11 13 6 7 1013.2 1013.0 0.0
21/12:30am 23.3 25.9 20.4 84 1.9 S 7 11 4 6 1013.2 1013.0 0.0
21/12:00am 23.6 25.4 20.3 82 2.1 SSE 11 15 6 8 1013.4 1013.2 0.0
 
Date/Time
EST
Temp
°C
App
Temp
°C
Dew
Point
°C
Rel
Hum
%
Delta-T
°C
Wind Press
QNH
hPa
Press
MSL
hPa
Rain since
9am
mm
Dir  Spd
km/h
Gust
km/h
Spd
kts
Gust
kts
20/11:30pm 23.8 25.5 20.1 80 2.4 SSE 11 15 6 8 1013.5 1013.3 0.0
20/11:00pm 24.0 25.3 20.1 79 2.5 S 13 19 7 10 1013.4 1013.2 0.0
20/10:30pm 24.4 26.9 20.3 78 2.7 S 7 11 4 6 1013.3 1013.1 0.0
20/10:00pm 25.1 28.8 19.9 73 3.4 CALM 0 0 0 0 1013.3 1013.1 0.0
20/09:30pm 25.8 28.4 20.1 71 3.7 E 6 7 3 4 1013.2 1013.0 0.0
20/09:00pm 26.1 28.2 20.2 70 3.9 E 9 11 5 6 1013.0 1012.8 0.0
20/08:30pm 26.5 28.3 20.3 68 4.1 ENE 11 13 6 7 1012.6 1012.4 0.0
20/08:00pm 26.9 28.8 20.5 68 4.2 ENE 11 15 6 8 1012.1 1011.9 0.0
20/07:30pm 27.4 28.9 20.5 66 4.5 ENE 13 19 7 10 1011.7 1011.5 0.0
20/07:00pm 27.8 29.2 21.1 67 4.5 NE 15 19 8 10 1011.2 1011.0 0.0
20/06:30pm 28.1 28.5 20.6 63 5.0 ENE 19 22 10 12 1010.7 1010.5 0.0
20/06:00pm 28.8 29.1 20.5 61 5.5 NE 19 24 10 13 1010.2 1010.0 0.0
20/05:30pm 29.7 29.9 20.5 57 6.1 ENE 20 26 11 14 1009.6 1009.4 0.0
20/05:00pm 30.6 31.1 20.8 56 6.5 ENE 19 24 10 13 1009.1 1008.9 0.0
20/04:30pm 31.3 31.0 20.3 52 7.3 ENE 22 28 12 15 1008.6 1008.4 0.0
20/04:00pm 30.8 30.5 19.2 50 7.6 ENE 19 26 10 14 1008.4 1008.2 0.0
20/03:30pm 31.6 31.7 19.2 47 8.1 ENE 17 26 9 14 1008.3 1008.1 0.0
20/03:00pm 33.0 32.7 19.5 45 8.9 ENE 20 28 11 15 1008.3 1008.1 0.0
20/02:30pm 31.4 30.9 18.7 46 8.2 NE 19 28 10 15 1008.4 1008.2 0.0
20/02:00pm 32.3 34.0 18.5 44 9.0 ENE 7 15 4 8 1008.7 1008.5 0.0
20/01:30pm 32.0 32.3 15.9 38 10.1 ESE 9 13 5 7 1008.9 1008.7 0.0
20/01:00pm 32.2 32.7 16.5 39 9.9 ESE 9 17 5 9 1009.2 1009.0 0.0
20/12:30pm 32.3 31.9 16.2 38 10.1 SW 13 19 7 10 1009.6 1009.4 0.0
20/12:00pm 31.7 31.7 17.2 42 9.2 S 13 20 7 11 1009.9 1009.7 0.0
20/11:30am 32.7 33.5 18.1 42 9.4 WSW 11 20 6 11 1010.2 1010.0 0.0
20/11:00am 32.6 32.7 18.4 43 9.2 SSW 15 24 8 13 1010.6 1010.4 0.0
20/10:30am 30.1 30.0 16.9 45 8.3 SSW 13 22 7 12 1010.9 1010.7 0.0
20/10:00am 29.5 30.0 18.3 51 7.2 S 13 24 7 13 1011.1 1010.9 0.0
20/09:30am 29.2 29.8 18.6 52 6.8 SSW 13 20 7 11 1011.3 1011.1 0.0
20/09:00am 28.0 29.5 19.0 58 5.8 SW 9 15 5 8 1011.5 1011.3 0.0
20/08:30am 27.9 29.8 19.7 61 5.3 S 9 15 5 8 1011.6 1011.4 0.0
20/08:00am 26.0 27.1 19.6 68 4.1 SSW 13 17 7 9 1011.5 1011.3 0.0
20/07:30am 25.2 26.3 19.6 71 3.6 SSW 13 20 7 11 1011.2 1011.0 0.0
20/07:00am 24.7 26.3 20.0 75 3.0 SW 11 17 6 9 1011.0 1010.8 0.0
20/06:30am 24.0 26.2 20.5 81 2.3 WSW 9 11 5 6 1010.4 1010.2 0.0
20/06:00am 23.3 25.9 20.4 84 1.9 WSW 7 9 4 5 1009.7 1009.5 0.0
20/05:30am 23.4 26.0 20.5 84 1.9 WSW 7 9 4 5 1009.2 1009.0 0.0
20/05:00am 23.9 28.1 21.0 84 1.9 CALM 0 0 0 0 1008.7 1008.5 0.0
20/04:30am 23.9 28.1 21.0 84 1.9 CALM 0 0 0 0 1008.5 1008.3 0.0
20/04:00am 24.1 28.3 21.0 83 2.0 CALM 0 0 0 0 1008.3 1008.1 0.0
20/03:30am 24.3 28.1 21.0 82 2.2 SSW 2 6 1 3 1008.2 1008.0 0.0
20/03:00am 24.3 26.9 21.2 83 2.0 WSW 9 13 5 7 1008.2 1008.0 0.0
20/02:30am 24.3 27.0 21.4 84 1.9 W 9 13 5 7 1008.1 1007.9 0.0
20/02:00am 24.7 26.9 21.2 81 2.3 NW 11 15 6 8 1008.7 1008.5 0.0
20/01:30am 24.9 27.4 21.0 79 2.6 WSW 9 11 5 6 1008.8 1008.6 0.0
20/01:00am 25.1 26.8 21.0 78 2.7 WSW 13 17 7 9 1009.0 1008.8 0.0
20/12:30am 25.2 27.3 20.9 77 2.8 SW 11 17 6 9 1009.1 1008.9 0.0
20/12:00am 25.2 28.0 20.9 77 2.8 W 7 9 4 5 1009.2 1009.0 0.0
 
Date/Time
EST
Temp
°C
App
Temp
°C
Dew
Point
°C
Rel
Hum
%
Delta-T
°C
Wind Press
QNH
hPa
Press
MSL
hPa
Rain since
9am
mm
Dir  Spd
km/h
Gust
km/h
Spd
kts
Gust
kts
19/11:30pm 25.3 27.9 20.5 75 3.1 WSW 7 9 4 5 1009.4 1009.2 0.0
19/11:00pm 25.9 28.5 20.5 72 3.5 WNW 7 9 4 5 1009.2 1009.0 0.0
19/10:30pm 26.3 28.5 20.4 70 3.9 WNW 9 13 5 7 1009.5 1009.3 0.0
19/10:00pm 26.6 28.0 20.4 69 4.1 WNW 13 17 7 9 1009.2 1009.0 0.0
19/09:30pm 27.0 28.4 20.3 66 4.4 NNW 13 17 7 9 1008.8 1008.6 0.0
19/09:00pm 27.3 28.2 20.1 64 4.7 NNW 15 20 8 11 1008.6 1008.4 0.0
19/08:30pm 27.7 28.2 20.8 66 4.6 N 19 26 10 14 1008.8 1008.6 0.0
19/08:00pm 27.7 28.3 21.0 67 4.5 N 19 22 10 12 1008.7 1008.5 0.0
19/07:30pm 27.8 28.6 20.6 65 4.8 N 17 20 9 11 1008.3 1008.1 0.0
19/07:00pm 27.7 28.4 20.5 65 4.8 NNW 17 22 9 12 1007.9 1007.7 0.0
19/06:30pm 27.9 27.3 20.5 64 4.9 N 24 30 13 16 1007.3 1007.1 0.0
19/06:00pm 28.2 27.4 20.0 61 5.4 N 24 32 13 17 1006.8 1006.6 0.0
19/05:30pm 28.6 27.3 19.8 59 5.8 N 26 33 14 18 1006.2 1006.0 0.0
19/05:00pm 29.1 27.8 19.1 54 6.5 N 24 32 13 17 1005.8 1005.6 0.0
19/04:30pm 30.5 28.3 18.6 49 7.7 N 28 35 15 19 1005.5 1005.3 0.0
19/04:00pm 32.1 30.7 19.7 48 8.2 NNE 26 32 14 17 1005.4 1005.2 0.0
19/03:30pm 31.0 29.6 18.7 48 8.0 N 24 32 13 17 1005.9 1005.7 0.0
19/03:00pm 30.7 29.3 18.8 49 7.7 NNE 24 30 13 16 1006.3 1006.1 0.0
19/02:30pm 31.3 29.7 19.3 49 7.9 N 26 37 14 20 1006.6 1006.4 0.0
19/02:00pm 32.0 30.8 19.3 47 8.3 NNE 24 33 13 18 1006.9 1006.7 0.0

Other Formats:

Comma delimited format used in spreadsheet applications
http://www.bom.gov.au/fwo/IDQ60801/IDQ60801.94387.axf

JavaScript Object Notation format (JSON) in row-major order
http://www.bom.gov.au/fwo/IDQ60801/IDQ60801.94387.json